Fort Hall, Idaho
Current Conditions -  °F | °C
As of 8:53 PM on Saturday 22 Nov 2014 (Local Time) from KPIH Reporting Station
Clear Clear  
Wind Chill: 22°   Ceiling: Unl
Heat Index: 35°   Visibility: 10mi
Dew Point: 30°   Wind: 28mph
Humidity: 82%   Direction: 230°SW
Pressure: 29.83"   Gusts: 31mph
Location:  43.03°N, 112.44°W
Report Text: KPIH 230353Z 23024G27KT 10SM CLR 02/M01 A2983 RMK AO2 PK WND 23028/0353 SLP107 T00171011
Loading
Personal Weather Stations






























Interactive Weather Map New forecast layout! Learn more

10-Day Weather Forecast

Advertisements
Track Severe Weather on mobile